Time,TemperatureF,DewpointF,PressureIn,WindDirection,WindDirectionDegrees,WindSpeedMPH,WindSpeedGustMPH,Humidity,HourlyPrecipIn,Conditions,Clouds,dailyrainin,SoftwareType,DateUTC
2013-01-20 00:04:00,49.0,28.0,-100.00,NNW,340,6.0,17.0,44,0.00,,,-99.99,,2013-01-20 05:04:00,
2013-01-20 00:12:00,49.0,28.0,-100.00,NW,310,11.0,19.0,44,0.00,,,-99.99,,2013-01-20 05:12:00,
2013-01-20 00:22:00,49.0,28.0,-100.00,NW,320,7.0,17.0,44,0.00,,,-99.99,,2013-01-20 05:22:00,
2013-01-20 00:33:00,48.0,28.0,-100.00,NW,320,7.0,17.0,44,0.00,,,-99.99,,2013-01-20 05:33:00,
2013-01-20 00:42:00,48.0,28.0,-100.00,NNW,335,7.0,13.0,45,0.00,,,-99.99,,2013-01-20 05:42:00,
2013-01-20 00:53:00,48.0,28.0,-100.00,NNW,330,4.0,11.0,45,0.00,,,-99.99,,2013-01-20 05:53:00,
2013-01-20 01:02:00,48.0,28.0,-100.00,NNW,345,6.0,16.0,46,0.00,,,-99.99,,2013-01-20 06:02:00,
2013-01-20 01:12:00,47.0,28.0,-100.00,NNW,340,6.0,15.0,46,0.00,,,-99.99,,2013-01-20 06:12:00,
2013-01-20 01:22:00,47.0,28.0,-100.00,NNW,335,6.0,14.0,47,0.00,,,-99.99,,2013-01-20 06:22:00,
2013-01-20 01:33:00,47.0,28.0,-100.00,WNW,295,4.0,14.0,47,0.00,,,-99.99,,2013-01-20 06:33:00,
2013-01-20 01:42:00,47.0,28.0,-100.00,NW,325,5.0,10.0,47,0.00,,,-99.99,,2013-01-20 06:42:00,
2013-01-20 01:52:00,47.0,29.0,-100.00,NW,320,7.0,11.0,48,0.00,,,-99.99,,2013-01-20 06:52:00,
2013-01-20 02:02:00,47.0,29.0,-100.00,NNW,345,5.0,10.0,48,0.00,,,-99.99,,2013-01-20 07:02:00,
2013-01-20 02:12:00,47.0,29.0,-100.00,NW,325,4.0,11.0,49,0.00,,,-99.99,,2013-01-20 07:12:00,
2013-01-20 02:22:00,47.0,29.0,-100.00,NW,325,2.0,11.0,50,0.00,,,-99.99,,2013-01-20 07:22:00,
2013-01-20 02:32:00,47.0,29.0,-100.00,NNW,340,4.0,12.0,50,0.00,,,-99.99,,2013-01-20 07:32:00,
2013-01-20 02:42:00,47.0,30.0,-100.00,NNW,335,3.0,9.0,51,0.00,,,-99.99,,2013-01-20 07:42:00,
2013-01-20 02:52:00,47.0,30.0,-100.00,NW,310,3.0,11.0,52,0.00,,,-99.99,,2013-01-20 07:52:00,
2013-01-20 03:02:00,47.0,30.0,-100.00,NW,315,4.0,9.0,53,0.00,,,-99.99,,2013-01-20 08:02:00,
2013-01-20 03:12:00,46.0,31.0,-100.00,NNW,345,3.0,7.0,54,0.00,,,-99.99,,2013-01-20 08:12:00,
2013-01-20 03:22:00,47.0,31.0,-100.00,NNW,330,4.0,9.0,55,0.00,,,-99.99,,2013-01-20 08:22:00,
2013-01-20 03:32:00,46.0,32.0,-100.00,North,0,2.0,16.0,56,0.00,,,-99.99,,2013-01-20 08:32:00,
2013-01-20 03:42:00,47.0,32.0,-100.00,North,0,3.0,9.0,57,0.00,,,-99.99,,2013-01-20 08:42:00,
2013-01-20 03:52:00,47.0,33.0,-100.00,NNE,20,6.0,15.0,57,0.00,,,-99.99,,2013-01-20 08:52:00,
2013-01-20 04:02:00,47.0,33.0,-100.00,North,10,7.0,12.0,58,0.00,,,-99.99,,2013-01-20 09:02:00,
2013-01-20 04:12:00,47.0,33.0,-100.00,NE,50,6.0,12.0,59,0.00,,,-99.99,,2013-01-20 09:12:00,
2013-01-20 04:22:00,47.0,33.0,-100.00,North,0,6.0,16.0,60,0.00,,,-99.99,,2013-01-20 09:22:00,
2013-01-20 04:33:00,47.0,34.0,-100.00,NNE,30,6.0,15.0,60,0.00,,,-99.99,,2013-01-20 09:33:00,
2013-01-20 04:42:00,46.0,34.0,-100.00,NNE,30,9.0,16.0,61,0.00,,,-99.99,,2013-01-20 09:42:00,
2013-01-20 04:52:00,46.0,31.0,-100.00,NE,45,17.0,24.0,57,0.00,,,-99.99,,2013-01-20 09:52:00,
2013-01-20 05:02:00,45.0,31.0,-100.00,NE,50,16.0,26.0,57,0.00,,,-99.99,,2013-01-20 10:02:00,
2013-01-20 05:12:00,45.0,31.0,-100.00,NE,50,14.0,25.0,58,0.00,,,-99.99,,2013-01-20 10:12:00,
2013-01-20 05:22:00,44.0,31.0,-100.00,NE,40,12.0,25.0,58,0.00,,,-99.99,,2013-01-20 10:22:00,
2013-01-20 05:32:00,44.0,30.0,-100.00,NE,45,12.0,25.0,57,0.00,,,-99.99,,2013-01-20 10:32:00,
2013-01-20 05:42:00,44.0,30.0,-100.00,NE,55,8.0,18.0,57,0.00,,,-99.99,,2013-01-20 10:42:00,
2013-01-20 05:52:00,44.0,30.0,-100.00,NE,55,9.0,16.0,57,0.00,,,-99.99,,2013-01-20 10:52:00,
2013-01-20 06:03:00,43.0,29.0,-100.00,ENE,60,8.0,20.0,58,0.00,,,-99.99,,2013-01-20 11:03:00,
2013-01-20 06:12:00,43.0,29.0,-100.00,ENE,70,10.0,18.0,57,0.00,,,-99.99,,2013-01-20 11:12:00,
2013-01-20 06:22:00,42.0,28.0,-100.00,ENE,65,9.0,19.0,58,0.00,,,-99.99,,2013-01-20 11:22:00,
2013-01-20 06:33:00,41.0,27.0,-100.00,NE,55,14.0,20.0,56,0.00,,,-99.99,,2013-01-20 11:33:00,
2013-01-20 06:43:00,41.0,26.0,-100.00,NE,55,12.0,26.0,54,0.00,,,-99.99,,2013-01-20 11:43:00,
2013-01-20 06:53:00,40.0,24.0,-100.00,NNE,30,9.0,19.0,53,0.00,,,-99.99,,2013-01-20 11:53:00,
2013-01-20 07:03:00,39.0,21.0,-100.00,NE,45,14.0,24.0,47,0.00,,,-99.99,,2013-01-20 12:03:00,
2013-01-20 07:12:00,38.0,17.0,-100.00,NNE,30,14.0,22.0,42,0.00,,,-99.99,,2013-01-20 12:12:00,
2013-01-20 07:23:00,37.0,16.0,-100.00,NE,45,13.0,19.0,41,0.00,,,-99.99,,2013-01-20 12:23:00,
2013-01-20 07:33:00,37.0,13.0,-100.00,NE,40,13.0,21.0,37,0.00,,,-99.99,,2013-01-20 12:33:00,
2013-01-20 07:43:00,37.0,11.0,-100.00,NNE,30,14.0,21.0,34,0.00,,,-99.99,,2013-01-20 12:43:00,
2013-01-20 07:52:00,36.0,9.0,-100.00,ENE,65,12.0,27.0,32,0.00,,,-99.99,,2013-01-20 12:52:00,
2013-01-20 08:03:00,36.0,10.0,-100.00,ENE,75,9.0,22.0,34,0.00,,,-99.99,,2013-01-20 13:03:00,
2013-01-20 08:12:00,35.0,11.0,-100.00,ENE,60,5.0,14.0,35,0.00,,,-99.99,,2013-01-20 13:12:00,
2013-01-20 08:23:00,35.0,9.0,-100.00,NE,40,14.0,20.0,33,0.00,,,-99.99,,2013-01-20 13:23:00,
2013-01-20 08:33:00,35.0,8.0,-100.00,NE,40,9.0,23.0,32,0.00,,,-99.99,,2013-01-20 13:33:00,
2013-01-20 08:43:00,34.0,8.0,-100.00,NNE,30,6.0,19.0,33,0.00,,,-99.99,,2013-01-20 13:43:00,
2013-01-20 08:52:00,34.0,8.0,-100.00,ENE,75,6.0,11.0,33,0.00,,,-99.99,,2013-01-20 13:52:00,
2013-01-20 09:02:00,34.0,8.0,-100.00,East,95,6.0,11.0,33,0.00,,,-99.99,,2013-01-20 14:02:00,
2013-01-20 09:12:00,34.0,9.0,-100.00,East,85,5.0,9.0,34,0.00,,,-99.99,,2013-01-20 14:12:00,
2013-01-20 09:23:00,33.0,8.0,-100.00,NE,50,8.0,13.0,34,0.00,,,-99.99,,2013-01-20 14:23:00,
2013-01-20 09:33:00,33.0,8.0,-100.00,NNE,30,7.0,17.0,35,0.00,,,-99.99,,2013-01-20 14:33:00,
2013-01-20 09:43:00,33.0,8.0,-100.00,NE,50,12.0,19.0,35,0.00,,,-99.99,,2013-01-20 14:43:00,
2013-01-20 09:53:00,33.0,8.0,-100.00,ENE,60,11.0,21.0,34,0.00,,,-99.99,,2013-01-20 14:53:00,
2013-01-20 10:03:00,33.0,9.0,-100.00,East,85,10.0,18.0,35,0.00,,,-99.99,,2013-01-20 15:03:00,
2013-01-20 10:12:00,32.0,9.0,-100.00,ENE,60,10.0,19.0,37,0.00,,,-99.99,,2013-01-20 15:12:00,
2013-01-20 10:23:00,33.0,10.0,-100.00,NNE,30,7.0,18.0,38,0.00,,,-99.99,,2013-01-20 15:23:00,
2013-01-20 10:33:00,33.0,10.0,-100.00,East,85,8.0,14.0,38,0.00,,,-99.99,,2013-01-20 15:33:00,
2013-01-20 10:42:00,33.0,9.0,-100.00,East,85,12.0,18.0,35,0.00,,,-99.99,,2013-01-20 15:42:00,
2013-01-20 10:53:00,33.0,9.0,-100.00,NE,55,7.0,16.0,36,0.00,,,-99.99,,2013-01-20 15:53:00,
2013-01-20 11:03:00,33.0,8.0,-100.00,East,80,9.0,13.0,34,0.55,,,-99.99,,2013-01-20 16:03:00,
2013-01-20 11:12:00,34.0,9.0,-100.00,ENE,70,7.0,16.0,35,0.00,,,-99.99,,2013-01-20 16:12:00,
2013-01-20 11:23:00,33.0,8.0,-100.00,ENE,70,7.0,16.0,34,0.00,,,-99.99,,2013-01-20 16:23:00,
2013-01-20 11:33:00,33.0,9.0,-100.00,NE,40,4.0,14.0,36,0.00,,,-99.99,,2013-01-20 16:33:00,
2013-01-20 11:43:00,34.0,10.0,-100.00,East,80,7.0,11.0,36,0.00,,,-99.99,,2013-01-20 16:43:00,
2013-01-20 11:52:00,34.0,9.0,-100.00,East,85,10.0,13.0,34,0.00,,,-99.99,,2013-01-20 16:52:00,
2013-01-20 12:03:00,33.0,9.0,-100.00,ENE,75,6.0,19.0,35,0.00,,,-99.99,,2013-01-20 17:03:00,
2013-01-20 12:13:00,34.0,9.0,-100.00,SE,125,7.0,14.0,35,0.00,,,-99.99,,2013-01-20 17:13:00,
2013-01-20 12:22:00,34.0,10.0,-100.00,East,80,10.0,13.0,36,0.00,,,-99.99,,2013-01-20 17:22:00,
2013-01-20 12:33:00,33.0,9.0,-100.00,East,90,6.0,12.0,36,0.00,,,-99.99,,2013-01-20 17:33:00,
2013-01-20 12:42:00,34.0,10.0,-100.00,East,90,6.0,12.0,36,0.00,,,-99.99,,2013-01-20 17:42:00,
2013-01-20 12:52:00,35.0,11.0,-100.00,East,80,6.0,10.0,37,0.00,,,-99.99,,2013-01-20 17:52:00,
2013-01-20 13:03:00,35.0,12.0,-100.00,ENE,75,4.0,10.0,37,0.00,,,-99.99,,2013-01-20 18:03:00,
2013-01-20 13:13:00,34.0,11.0,-100.00,East,95,7.0,11.0,37,0.00,,,-99.99,,2013-01-20 18:13:00,
2013-01-20 13:23:00,35.0,12.0,-100.00,East,95,5.0,11.0,38,0.00,,,-99.99,,2013-01-20 18:23:00,
2013-01-20 13:33:00,36.0,12.0,-100.00,ENE,60,4.0,9.0,37,0.00,,,-99.99,,2013-01-20 18:33:00,
2013-01-20 13:43:00,36.0,12.0,-100.00,NE,50,4.0,9.0,37,0.00,,,-99.99,,2013-01-20 18:43:00,
2013-01-20 13:53:00,36.0,11.0,-100.00,North,0,3.0,7.0,35,0.00,,,-99.99,,2013-01-20 18:53:00,
2013-01-20 14:03:00,36.0,10.0,-100.00,North,5,4.0,8.0,34,0.00,,,-99.99,,2013-01-20 19:03:00,
2013-01-20 14:12:00,37.0,10.0,-100.00,North,10,5.0,10.0,33,0.00,,,-99.99,,2013-01-20 19:12:00,
2013-01-20 14:22:00,37.0,9.0,-100.00,NE,35,6.0,10.0,31,0.00,,,-99.99,,2013-01-20 19:22:00,
2013-01-20 14:33:00,36.0,8.0,-100.00,North,0,5.0,11.0,30,0.00,,,-99.99,,2013-01-20 19:33:00,
2013-01-20 14:43:00,37.0,10.0,-100.00,NE,35,4.0,11.0,32,0.00,,,-99.99,,2013-01-20 19:43:00,
2013-01-20 14:52:00,37.0,9.0,-100.00,NNE,30,2.0,9.0,30,0.00,,,-99.99,,2013-01-20 19:52:00,
2013-01-20 15:03:00,38.0,10.0,-100.00,NE,45,6.0,10.0,31,0.00,,,-99.99,,2013-01-20 20:03:00,
2013-01-20 15:12:00,37.0,9.0,-100.00,NE,40,5.0,9.0,31,0.00,,,-99.99,,2013-01-20 20:12:00,
2013-01-20 15:23:00,38.0,11.0,-100.00,East,100,2.0,5.0,31,0.00,,,-99.99,,2013-01-20 20:23:00,
2013-01-20 15:33:00,38.0,9.0,-100.00,North,0,4.0,6.0,30,0.00,,,-99.99,,2013-01-20 20:33:00,
2013-01-20 15:42:00,38.0,10.0,-100.00,NNW,330,3.0,8.0,31,0.00,,,-99.99,,2013-01-20 20:42:00,
2013-01-20 15:53:00,38.0,10.0,-100.00,North,350,3.0,9.0,30,0.00,,,-99.99,,2013-01-20 20:53:00,
2013-01-20 16:04:00,38.0,10.0,-100.00,North,0,4.0,11.0,30,0.00,,,-99.99,,2013-01-20 21:04:00,
2013-01-20 16:13:00,37.0,7.0,-100.00,North,0,7.0,11.0,29,0.00,,,-99.99,,2013-01-20 21:13:00,
2013-01-20 16:23:00,37.0,8.0,-100.00,NNE,30,6.0,9.0,29,0.55,,,-99.99,,2013-01-20 21:23:00,
2013-01-20 16:33:00,38.0,9.0,-100.00,NE,50,3.0,9.0,29,0.00,,,-99.99,,2013-01-20 21:33:00,
2013-01-20 16:43:00,37.0,7.0,-100.00,NE,50,7.0,12.0,28,0.00,,,-99.99,,2013-01-20 21:43:00,
2013-01-20 16:53:00,36.0,6.0,-100.00,North,10,7.0,12.0,27,0.00,,,-99.99,,2013-01-20 21:53:00,
2013-01-20 17:03:00,37.0,6.0,-100.00,NNE,30,6.0,12.0,27,0.00,,,-99.99,,2013-01-20 22:03:00,
2013-01-20 17:13:00,37.0,7.0,-100.00,North,0,4.0,11.0,28,0.55,,,-99.99,,2013-01-20 22:13:00,
2013-01-20 17:23:00,37.0,7.0,-100.00,NE,35,5.0,11.0,29,0.00,,,-99.99,,2013-01-20 22:23:00,
2013-01-20 17:33:00,36.0,8.0,-100.00,NNE,25,6.0,8.0,30,0.00,,,-99.99,,2013-01-20 22:33:00,
2013-01-20 17:43:00,37.0,9.0,-100.00,NNE,30,2.0,8.0,31,0.00,,,-99.99,,2013-01-20 22:43:00,
2013-01-20 17:52:00,36.0,9.0,-100.00,NE,45,6.0,10.0,32,0.00,,,-99.99,,2013-01-20 22:52:00,
2013-01-20 18:03:00,35.0,9.0,-100.00,NE,50,4.0,13.0,33,0.00,,,-99.99,,2013-01-20 23:03:00,
2013-01-20 18:13:00,35.0,9.0,-100.00,NE,40,7.0,12.0,33,0.00,,,-99.99,,2013-01-20 23:13:00,
2013-01-20 18:23:00,35.0,9.0,-100.00,NE,35,6.0,10.0,33,0.00,,,-99.99,,2013-01-20 23:23:00,
2013-01-20 18:33:00,35.0,9.0,-100.00,ENE,75,7.0,11.0,33,0.00,,,-99.99,,2013-01-20 23:33:00,
2013-01-20 18:43:00,35.0,9.0,-100.00,NE,45,4.0,11.0,34,0.00,,,-99.99,,2013-01-20 23:43:00,
2013-01-20 18:53:00,34.0,9.0,-100.00,ENE,60,8.0,13.0,34,0.00,,,-99.99,,2013-01-20 23:53:00,
2013-01-20 19:03:00,34.0,9.0,-100.00,NNE,30,3.0,11.0,35,0.00,,,-99.99,,2013-01-21 00:03:00,
2013-01-20 19:13:00,34.0,9.0,-100.00,NE,35,6.0,11.0,35,0.00,,,-99.99,,2013-01-21 00:13:00,
2013-01-20 19:23:00,34.0,10.0,-100.00,NNE,20,6.0,9.0,36,0.00,,,-99.99,,2013-01-21 00:23:00,
2013-01-20 19:33:00,34.0,11.0,-100.00,North,0,4.0,12.0,37,0.00,,,-99.99,,2013-01-21 00:33:00,
2013-01-20 19:43:00,34.0,11.0,-100.00,NE,35,4.0,8.0,38,0.00,,,-99.99,,2013-01-21 00:43:00,
2013-01-20 19:53:00,34.0,11.0,-100.00,NE,55,3.0,7.0,38,0.00,,,-99.99,,2013-01-21 00:53:00,
2013-01-20 20:03:00,33.0,11.0,-100.00,ENE,75,3.0,7.0,39,0.00,,,-99.99,,2013-01-21 01:03:00,
2013-01-20 20:13:00,33.0,11.0,-100.00,ENE,75,3.0,7.0,39,0.00,,,-99.99,,2013-01-21 01:13:00,
2013-01-20 20:23:00,33.0,11.0,-100.00,ESE,115,2.0,6.0,39,0.00,,,-99.99,,2013-01-21 01:23:00,
2013-01-20 20:33:00,32.0,11.0,-100.00,East,85,5.0,9.0,39,0.00,,,-99.99,,2013-01-21 01:33:00,
2013-01-20 20:43:00,32.0,10.0,-100.00,East,90,6.0,9.0,39,0.00,,,-99.99,,2013-01-21 01:43:00,
2013-01-20 20:53:00,32.0,10.0,-100.00,ESE,105,4.0,9.0,39,0.00,,,-99.99,,2013-01-21 01:53:00,
2013-01-20 21:03:00,32.0,10.0,-100.00,ENE,75,4.0,7.0,39,0.00,,,-99.99,,2013-01-21 02:03:00,
2013-01-20 21:12:00,32.0,10.0,-100.00,ENE,70,3.0,7.0,40,0.00,,,-99.99,,2013-01-21 02:12:00,
2013-01-20 21:23:00,32.0,11.0,-100.00,East,100,3.0,6.0,41,0.00,,,-99.99,,2013-01-21 02:23:00,
2013-01-20 21:33:00,31.0,11.0,-100.00,ENE,60,4.0,6.0,42,0.00,,,-99.99,,2013-01-21 02:33:00,
2013-01-20 21:43:00,31.0,11.0,-100.00,East,80,4.0,6.0,43,0.00,,,-99.99,,2013-01-21 02:43:00,
2013-01-20 21:53:00,31.0,10.0,-100.00,ENE,75,4.0,6.0,40,0.00,,,-99.99,,2013-01-21 02:53:00,
2013-01-20 22:03:00,31.0,10.0,-100.00,East,85,5.0,7.0,40,0.00,,,-99.99,,2013-01-21 03:03:00,
2013-01-20 22:13:00,31.0,11.0,-100.00,East,90,2.0,5.0,43,0.00,,,-99.99,,2013-01-21 03:13:00,
2013-01-20 22:23:00,30.0,11.0,-100.00,ENE,65,4.0,6.0,43,0.00,,,-99.99,,2013-01-21 03:23:00,
2013-01-20 22:33:00,30.0,10.0,-100.00,ENE,65,2.0,5.0,42,0.00,,,-99.99,,2013-01-21 03:33:00,
2013-01-20 22:43:00,30.0,10.0,-100.00,ENE,75,4.0,6.0,42,0.00,,,-99.99,,2013-01-21 03:43:00,
2013-01-20 22:53:00,30.0,11.0,-100.00,ENE,60,2.0,6.0,45,0.00,,,-99.99,,2013-01-21 03:53:00,
2013-01-20 23:03:00,30.0,11.0,-100.00,East,90,2.0,4.0,46,0.00,,,-99.99,,2013-01-21 04:03:00,
2013-01-20 23:12:00,30.0,11.0,-100.00,East,85,4.0,6.0,45,0.00,,,-99.99,,2013-01-21 04:12:00,
2013-01-20 23:23:00,30.0,11.0,-100.00,East,85,6.0,9.0,44,0.00,,,-99.99,,2013-01-21 04:23:00,
2013-01-20 23:33:00,30.0,10.0,-100.00,East,85,4.0,9.0,43,0.00,,,-99.99,,2013-01-21 04:33:00,
2013-01-20 23:43:00,30.0,9.0,-100.00,East,80,4.0,7.0,42,0.00,,,-99.99,,2013-01-21 04:43:00,
2013-01-20 23:53:00,30.0,10.0,-100.00,NE,50,4.0,9.0,42,0.00,,,-99.99,,2013-01-21 04:53:00,